Time;durP1;ratioP1;P1;durP2;ratioP2;P2;SDS_P1;SDS_P2;PMS_P1;PMS_P2;Temp;Humidity;BMP_temperature;BMP_pressure;BME280_temperature;BME280_humidity;BME280_pressure;Samples;Min_cycle;Max_cycle;Signal;HPM_P1;HPM_P2
2023/01/05 00:02:25;;;;;;;;;;;;;;;17.34;49.13;101773.75;5098255;28;1132;-41
2023/01/05 00:04:50;;;;;;;;;;;;;;;17.06;48.79;101762.66;5097959;28;1042;-38
2023/01/05 00:07:15;;;;;;;;;;;;;;;18.73;47.06;101762.31;5097576;28;1037;-41
2023/01/05 00:09:41;;;;;;;;;;;;;;;17.56;48.39;101762.78;5095129;28;1076;-39
2023/01/05 00:23:03;;;;;;;;;;;;;;;17.59;48.81;101746.56;5084421;28;1165;-41
2023/01/05 00:25:30;;;;;;;;;;;;;;;17.16;48.36;101739.97;5097784;28;1062;-40
2023/01/05 00:27:57;;;;;;;;;;;;;;;17.57;48.50;101739.66;5097409;28;1042;-44
2023/01/05 00:30:23;;;;;;;;;;;;;;;17.57;48.70;101742.41;5084188;28;1197;-44
2023/01/05 00:32:49;;;;;;;;;;;;;;;17.06;48.38;101745.34;5082186;28;1205;-38
2023/01/05 00:35:14;;;;;;;;;;;;;;;17.18;48.43;101745.22;5097274;28;1902;-44
2023/01/05 00:37:40;;;;;;;;;;;;;;;17.54;48.83;101745.69;5095830;28;2051;-38
2023/01/05 00:40:06;;;;;;;;;;;;;;;17.73;49.09;101738.75;5097424;28;1066;-41
2023/01/05 00:42:32;;;;;;;;;;;;;;;19.30;46.18;101732.34;5096887;28;1180;-41
2023/01/05 00:44:57;;;;;;;;;;;;;;;17.89;48.30;101738.91;5097488;28;1066;-39
2023/01/05 00:47:22;;;;;;;;;;;;;;;17.42;47.96;101738.41;5096817;28;1203;-40
2023/01/05 00:49:48;;;;;;;;;;;;;;;17.17;47.50;101732.56;5097268;28;1117;-40
2023/01/05 00:52:13;;;;;;;;;;;;;;;17.77;48.42;101744.59;5092005;28;1452;-41
2023/01/05 00:54:39;;;;;;;;;;;;;;;17.19;48.34;101736.72;5089061;28;1972;-39
2023/01/05 00:57:06;;;;;;;;;;;;;;;16.87;47.68;101734.59;5096868;28;1117;-40
2023/01/05 00:59:32;;;;;;;;;;;;;;;17.53;48.19;101731.09;5083190;28;1260;-41
2023/01/05 01:01:58;;;;;;;;;;;;;;;17.37;48.62;101732.81;5075594;28;1518;-39
2023/01/05 01:04:23;;;;;;;;;;;;;;;17.00;48.11;101716.09;5089140;28;1070;-44
2023/01/05 01:06:49;;;;;;;;;;;;;;;16.86;47.15;101718.38;5090298;28;1055;-43
2023/01/05 01:09:14;;;;;;;;;;;;;;;17.85;48.18;101713.00;5075477;28;1247;-41
2023/01/05 01:11:40;;;;;;;;;;;;;;;17.07;48.39;101720.34;5081794;28;1067;-40
2023/01/05 01:14:06;;;;;;;;;;;;;;;16.85;47.57;101712.03;5097126;28;1217;-42
2023/01/05 01:16:31;;;;;;;;;;;;;;;17.99;47.98;101714.28;5083491;28;1910;-38
2023/01/05 01:18:56;;;;;;;;;;;;;;;17.17;48.36;101713.34;5084729;28;1197;-38
2023/01/05 01:21:22;;;;;;;;;;;;;;;18.01;47.94;101697.53;5090090;28;1119;-43
2023/01/05 01:23:47;;;;;;;;;;;;;;;18.03;48.39;101698.09;5076293;28;900;-43
2023/01/05 01:26:13;;;;;;;;;;;;;;;17.26;48.65;101689.81;5082117;28;1067;-46
2023/01/05 01:28:40;;;;;;;;;;;;;;;17.73;49.04;101689.25;5083171;28;1348;-41
2023/01/05 01:31:06;;;;;;;;;;;;;;;17.33;48.99;101687.69;5095136;28;1146;-43
2023/01/05 01:33:31;;;;;;;;;;;;;;;17.00;48.16;101678.50;5096329;28;1033;-46
2023/01/05 01:35:56;;;;;;;;;;;;;;;16.82;47.37;101678.75;5081543;28;1979;-43
2023/01/05 01:38:22;;;;;;;;;;;;;;;16.66;46.80;101664.81;5083211;28;1217;-43
2023/01/05 01:40:49;;;;;;;;;;;;;;;17.63;48.05;101664.38;5093671;28;1356;-41
2023/01/05 01:43:15;;;;;;;;;;;;;;;17.47;48.78;101662.56;5082826;28;1461;-42
2023/01/05 01:45:41;;;;;;;;;;;;;;;17.41;49.43;101658.91;5094364;28;1155;-38
2023/01/05 01:48:08;;;;;;;;;;;;;;;18.98;46.99;101653.34;5094522;28;1280;-40
2023/01/05 01:50:35;;;;;;;;;;;;;;;17.60;48.86;101653.91;5081445;28;1370;-41
2023/01/05 01:53:01;;;;;;;;;;;;;;;17.20;47.90;101652.34;5094900;28;1114;-43
2023/01/05 01:55:27;;;;;;;;;;;;;;;18.06;48.61;101650.78;5081580;28;1910;-37
2023/01/05 01:57:52;;;;;;;;;;;;;;;17.24;48.77;101648.81;5094845;28;1161;-39
2023/01/05 02:00:18;;;;;;;;;;;;;;;18.00;48.77;101644.41;5087822;28;1054;-41
2023/01/05 02:02:47;;;;;;;;;;;;;;;18.04;48.74;101634.53;5089039;28;1131;-39
2023/01/05 02:05:16;;;;;;;;;;;;;;;17.32;48.60;101639.31;5058560;28;1182;-40
2023/01/05 02:07:46;;;;;;;;;;;;;;;17.07;47.55;101637.09;5086074;28;1214;-41
2023/01/05 02:10:12;;;;;;;;;;;;;;;17.87;48.23;101626.38;5095695;28;1039;-40
2023/01/05 02:12:52;;;;;;;;;;;;;;;17.13;48.58;101624.25;5094219;28;1336;-39
2023/01/05 02:15:56;;;;;;;;;;;;;;;17.00;47.54;101614.44;5096014;28;1984;-43
2023/01/05 02:18:45;;;;;;;;;;;;;;;17.76;48.19;101617.19;5003966;28;1210;-40
2023/01/05 02:21:14;;;;;;;;;;;;;;;16.99;48.41;101613.63;5006206;28;1806;-38
2023/01/05 02:23:43;;;;;;;;;;;;;;;18.57;47.59;101603.50;5037478;28;1172;-42
2023/01/05 02:26:23;;;;;;;;;;;;;;;17.57;48.69;101597.50;5099867;28;1017;-38
2023/01/05 02:28:54;;;;;;;;;;;;;;;17.04;48.24;101610.94;5098526;28;2191;-42
2023/01/05 02:31:38;;;;;;;;;;;;;;;17.54;49.15;101597.19;5103292;28;1130;-43
2023/01/05 02:34:22;;;;;;;;;;;;;;;17.16;49.24;101602.56;5099810;28;1022;-40
2023/01/05 02:37:03;;;;;;;;;;;;;;;18.75;47.27;101589.28;5098537;28;1917;-43
2023/01/05 02:39:47;;;;;;;;;;;;;;;17.52;48.62;101589.19;5087878;28;1123;-38
2023/01/05 02:42:14;;;;;;;;;;;;;;;17.16;47.65;101588.81;5097848;28;1341;-42
2023/01/05 02:44:41;;;;;;;;;;;;;;;17.36;48.27;101579.97;5098462;28;1149;-40
2023/01/05 02:47:27;;;;;;;;;;;;;;;17.23;48.49;101572.94;5099209;28;1018;-40
2023/01/05 02:50:00;;;;;;;;;;;;;;;18.10;48.52;101570.19;5085878;28;1684;-43
2023/01/05 02:52:26;;;;;;;;;;;;;;;18.26;48.31;101560.09;5102639;28;1067;-39
2023/01/05 02:54:53;;;;;;;;;;;;;;;17.35;48.76;101556.31;5080879;28;1898;-38
2023/01/05 02:57:45;;;;;;;;;;;;;;;17.24;47.65;101549.06;5073759;28;1150;-39
2023/01/05 03:00:08;;;;;;;;;;;;;;;16.99;46.71;101563.34;5081976;28;1402;-42
2023/01/05 03:02:34;;;;;;;;;;;;;;;16.80;46.70;101557.31;5098112;28;1265;-40
2023/01/05 03:05:04;;;;;;;;;;;;;;;17.86;48.30;101560.63;5099428;28;1109;-40
2023/01/05 03:07:30;;;;;;;;;;;;;;;17.08;48.41;101553.53;5081209;28;2180;-39
2023/01/05 03:09:56;;;;;;;;;;;;;;;16.92;47.81;101555.31;5093282;28;1146;-41
2023/01/05 03:15:20;;;;;;;;;;;;;;;17.13;48.32;101541.81;5094800;28;1898;-44
2023/01/05 03:17:47;;;;;;;;;;;;;;;18.39;47.95;101534.00;5111060;28;1178;-40
2023/01/05 03:20:15;;;;;;;;;;;;;;;17.59;48.91;101536.75;5071619;28;1173;-40
2023/01/05 03:36:43;;;;;;;;;;;;;;;17.96;48.36;101513.94;5077434;28;1909;-38
2023/01/05 03:39:09;;;;;;;;;;;;;;;18.68;47.46;101511.56;5095858;28;1103;-39
2023/01/05 03:41:35;;;;;;;;;;;;;;;17.45;49.04;101515.16;5077470;28;1318;-39
2023/01/05 03:44:01;;;;;;;;;;;;;;;17.12;48.25;101509.91;5061619;28;1177;-40
2023/01/05 03:46:30;;;;;;;;;;;;;;;18.15;48.64;101510.75;5076966;28;1361;-42
2023/01/05 03:48:55;;;;;;;;;;;;;;;17.39;48.66;101513.47;5096354;28;1074;-38
2023/01/05 03:51:24;;;;;;;;;;;;;;;17.02;48.25;101510.63;5085513;28;1103;-39
2023/01/05 03:53:49;;;;;;;;;;;;;;;16.97;46.97;101505.91;5077978;28;1074;-39
2023/01/05 03:56:15;;;;;;;;;;;;;;;16.72;46.60;101504.50;5088483;28;1894;-41
2023/01/05 03:58:40;;;;;;;;;;;;;;;17.67;48.14;101503.25;5096660;28;1177;-42
2023/01/05 04:01:07;;;;;;;;;;;;;;;16.98;48.40;101510.31;5096794;28;1142;-41
2023/01/05 04:03:33;;;;;;;;;;;;;;;18.19;48.13;101503.59;5083775;28;1269;-42
2023/01/05 04:06:02;;;;;;;;;;;;;;;17.66;49.00;101498.03;5084463;28;1271;-42
2023/01/05 04:08:29;;;;;;;;;;;;;;;17.12;48.46;101501.66;5096139;28;1409;-38
2023/01/05 04:10:56;;;;;;;;;;;;;;;17.04;47.88;101497.44;5096927;28;1116;-43
2023/01/05 04:13:22;;;;;;;;;;;;;;;17.70;48.50;101491.72;5083124;28;1020;-40
2023/01/05 04:15:48;;;;;;;;;;;;;;;17.12;48.29;101496.97;5096427;28;1906;-41
2023/01/05 04:18:14;;;;;;;;;;;;;;;17.62;48.73;101492.22;5096016;28;1047;-42
2023/01/05 04:20:39;;;;;;;;;;;;;;;17.31;48.68;101497.44;5083926;28;1138;-42
2023/01/05 04:23:06;;;;;;;;;;;;;;;16.95;47.70;101496.28;5082979;28;1215;-40
2023/01/05 04:25:33;;;;;;;;;;;;;;;17.81;48.46;101497.28;5079425;28;1276;-40
2023/01/05 04:28:10;;;;;;;;;;;;;;;17.27;49.02;101499.06;5086026;28;976;-42
2023/01/05 04:30:36;;;;;;;;;;;;;;;16.92;48.12;101497.63;5096494;28;1165;-44
2023/01/05 04:33:02;;;;;;;;;;;;;;;17.89;48.24;101494.03;5097569;28;1066;-45
2023/01/05 04:35:29;;;;;;;;;;;;;;;17.05;48.63;101497.19;5095894;28;1960;-43
2023/01/05 04:37:55;;;;;;;;;;;;;;;17.15;48.65;101495.63;5095345;28;1155;-42
2023/01/05 04:40:20;;;;;;;;;;;;;;;17.77;48.21;101503.31;5096405;28;1173;-43
2023/01/05 04:42:50;;;;;;;;;;;;;;;17.09;48.45;101503.00;5087536;28;1578;-45
2023/01/05 04:45:16;;;;;;;;;;;;;;;18.52;47.29;101490.56;5091822;28;1214;-41
2023/01/05 04:47:43;;;;;;;;;;;;;;;17.50;48.83;101491.56;5087053;28;1355;-43
2023/01/05 04:50:10;;;;;;;;;;;;;;;17.06;48.20;101496.09;5091866;28;1210;-42
2023/01/05 04:52:37;;;;;;;;;;;;;;;18.12;48.22;101488.16;5089621;28;1173;-42
2023/01/05 04:55:03;;;;;;;;;;;;;;;17.24;48.64;101483.91;5089182;28;1913;-42
2023/01/05 04:57:29;;;;;;;;;;;;;;;16.89;47.73;101482.47;5081293;28;1174;-44
2023/01/05 04:59:54;;;;;;;;;;;;;;;17.62;48.62;101470.22;5097120;28;1114;-42
2023/01/05 05:02:20;;;;;;;;;;;;;;;16.91;48.61;101474.81;5095863;28;1125;-45
2023/01/05 05:04:48;;;;;;;;;;;;;;;18.45;47.66;101469.63;5097507;28;1022;-43
2023/01/05 05:07:13;;;;;;;;;;;;;;;17.68;48.73;101466.38;5096495;28;1154;-42
2023/01/05 05:09:39;;;;;;;;;;;;;;;17.22;48.10;101460.53;5095796;28;1571;-48
2023/01/05 05:12:04;;;;;;;;;;;;;;;17.44;48.64;101450.25;5095925;28;1139;-44
2023/01/05 05:14:32;;;;;;;;;;;;;;;18.09;48.28;101438.31;5088944;28;1369;-45
2023/01/05 05:16:58;;;;;;;;;;;;;;;17.31;48.54;101434.22;5082273;28;1902;-45
2023/01/05 05:19:24;;;;;;;;;;;;;;;17.19;48.14;101444.56;5096623;28;1129;-44
2023/01/05 05:21:50;;;;;;;;;;;;;;;17.66;48.66;101423.75;5095322;28;1144;-43
2023/01/05 05:24:15;;;;;;;;;;;;;;;17.10;48.27;101442.28;5095980;28;1146;-42
2023/01/05 05:26:43;;;;;;;;;;;;;;;17.71;48.61;101446.63;5094693;28;1463;-42
2023/01/05 05:29:09;;;;;;;;;;;;;;;17.53;48.64;101433.28;5095747;28;1189;-45
2023/01/05 05:31:35;;;;;;;;;;;;;;;17.10;47.78;101435.97;5096128;28;1304;-40
2023/01/05 05:34:01;;;;;;;;;;;;;;;16.90;47.45;101428.34;5096557;28;1078;-42
2023/01/05 05:36:26;;;;;;;;;;;;;;;17.70;48.19;101430.41;5093563;28;1906;-42
2023/01/05 05:38:51;;;;;;;;;;;;;;;17.03;48.45;101427.13;5085477;28;1071;-44
2023/01/05 05:41:17;;;;;;;;;;;;;;;16.74;47.76;101425.41;5095956;28;1230;-41
2023/01/05 05:43:42;;;;;;;;;;;;;;;18.03;47.75;101420.97;5095785;28;1221;-41
2023/01/05 05:46:08;;;;;;;;;;;;;;;17.16;48.22;101409.38;5096002;28;1213;-45
2023/01/05 05:48:33;;;;;;;;;;;;;;;17.60;48.65;101414.66;5095846;28;1232;-41
2023/01/05 05:50:59;;;;;;;;;;;;;;;17.88;48.11;101404.34;5095995;28;1049;-42
2023/01/05 05:53:24;;;;;;;;;;;;;;;17.15;48.16;101407.69;5095297;28;1161;-43
2023/01/05 05:55:50;;;;;;;;;;;;;;;18.34;47.68;101414.75;5096195;28;1960;-41
2023/01/05 05:58:18;;;;;;;;;;;;;;;17.41;48.41;101401.31;5094746;28;1101;-40
2023/01/05 06:00:44;;;;;;;;;;;;;;;17.06;47.78;101405.44;5094835;28;1450;-43
2023/01/05 06:03:09;;;;;;;;;;;;;;;17.87;48.25;101400.78;5096079;28;1450;-43
2023/01/05 06:05:35;;;;;;;;;;;;;;;17.01;49.04;101399.06;5095877;28;1016;-41
2023/01/05 06:08:00;;;;;;;;;;;;;;;18.78;46.98;101390.34;5096424;28;1190;-46
2023/01/05 06:10:26;;;;;;;;;;;;;;;18.07;48.24;101391.00;5095756;28;1142;-42
2023/01/05 06:12:52;;;;;;;;;;;;;;;17.39;48.48;101384.25;5090924;28;1145;-42
2023/01/05 06:15:17;;;;;;;;;;;;;;;17.25;47.32;101372.88;5094351;28;1967;-44
2023/01/05 06:17:44;;;;;;;;;;;;;;;17.08;47.64;101374.94;5095838;28;1241;-43
2023/01/05 06:20:10;;;;;;;;;;;;;;;17.43;48.57;101371.66;5094880;28;1225;-42
2023/01/05 06:22:35;;;;;;;;;;;;;;;17.01;48.50;101375.19;5095354;28;1233;-42
2023/01/05 06:25:01;;;;;;;;;;;;;;;17.94;47.17;101378.56;5095646;28;1288;-44
2023/01/05 06:27:26;;;;;;;;;;;;;;;17.28;48.74;101372.34;5095806;28;1205;-42
2023/01/05 06:29:51;;;;;;;;;;;;;;;16.99;49.64;101376.53;5095462;28;1217;-50
2023/01/05 06:32:17;;;;;;;;;;;;;;;16.79;50.14;101372.47;5095443;28;1222;-41
2023/01/05 06:34:42;;;;;;;;;;;;;;;16.58;50.69;101375.00;5095630;28;1206;-42
2023/01/05 06:37:08;;;;;;;;;;;;;;;16.41;50.76;101377.00;5095889;28;1918;-42
2023/01/05 06:39:33;;;;;;;;;;;;;;;16.32;51.13;101373.91;5095256;28;1197;-45
2023/01/05 06:41:59;;;;;;;;;;;;;;;16.22;51.36;101371.06;5095485;28;1217;-44
2023/01/05 06:44:24;;;;;;;;;;;;;;;16.10;51.80;101364.88;5095414;28;1189;-45
2023/01/05 06:46:49;;;;;;;;;;;;;;;15.97;52.11;101363.34;5095598;28;1166;-39
2023/01/05 06:49:15;;;;;;;;;;;;;;;15.87;52.35;101373.09;5092526;28;1190;-44
2023/01/05 06:51:42;;;;;;;;;;;;;;;15.79;52.57;101375.41;5095505;28;1355;-42
2023/01/05 06:54:07;;;;;;;;;;;;;;;15.68;52.44;101375.28;5096052;28;1209;-42
2023/01/05 06:56:32;;;;;;;;;;;;;;;15.60;52.90;101372.13;5095487;28;1906;-44
2023/01/05 06:58:58;;;;;;;;;;;;;;;16.70;50.42;101374.84;5095253;28;1245;-44
2023/01/05 07:01:23;;;;;;;;;;;;;;;16.98;49.61;101366.63;5095245;28;1201;-47
2023/01/05 07:03:49;;;;;;;;;;;;;;;16.26;51.34;101358.47;5095864;28;1249;-41
2023/01/05 07:06:14;;;;;;;;;;;;;;;15.93;52.19;101353.97;5099552;28;1154;-45
2023/01/05 07:08:40;;;;;;;;;;;;;;;15.77;52.67;101351.00;5099482;28;1092;-42
2023/01/05 07:11:05;;;;;;;;;;;;;;;15.66;52.80;101369.22;5098335;28;1445;-42
2023/01/05 07:13:30;;;;;;;;;;;;;;;17.22;49.15;101353.34;5098840;28;1197;-42
2023/01/05 07:15:56;;;;;;;;;;;;;;;16.58;50.66;101363.22;5099185;28;1902;-46
2023/01/05 07:18:21;;;;;;;;;;;;;;;16.08;51.99;101351.41;5098789;28;1245;-46
2023/01/05 07:20:47;;;;;;;;;;;;;;;15.87;52.39;101340.19;5098777;28;1237;-41
2023/01/05 07:23:12;;;;;;;;;;;;;;;15.71;52.66;101341.88;5098755;28;1217;-40
2023/01/05 07:25:38;;;;;;;;;;;;;;;15.57;53.21;101341.41;5098638;28;1185;-41
2023/01/05 07:28:03;;;;;;;;;;;;;;;16.86;50.11;101334.63;5098186;28;1157;-41
2023/01/05 07:30:29;;;;;;;;;;;;;;;17.05;49.25;101345.25;5098763;28;1296;-43
2023/01/05 07:33:00;;;;;;;;;;;;;;;16.22;51.50;101335.38;5098336;28;1069;-46
2023/01/05 07:35:26;;;;;;;;;;;;;;;15.94;52.22;101337.25;5098667;28;1898;-45
2023/01/05 07:37:51;;;;;;;;;;;;;;;15.78;52.78;101329.88;5098903;28;1070;-45
2023/01/05 07:40:17;;;;;;;;;;;;;;;15.62;52.98;101335.16;5098414;28;1097;-44
2023/01/05 07:42:42;;;;;;;;;;;;;;;17.09;49.72;101322.47;5098063;28;1182;-43
2023/01/05 07:45:08;;;;;;;;;;;;;;;16.50;50.99;101325.25;5097526;28;1340;-47
2023/01/05 07:47:34;;;;;;;;;;;;;;;16.02;52.13;101316.75;5098627;28;1034;-41
2023/01/05 07:50:00;;;;;;;;;;;;;;;15.83;52.53;101313.53;5089541;28;1491;-43
2023/01/05 07:52:27;;;;;;;;;;;;;;;15.68;53.07;101320.47;5092271;28;1292;-40
2023/01/05 07:54:52;;;;;;;;;;;;;;;17.16;49.41;101304.94;5083164;28;1977;-47
2023/01/05 07:57:18;;;;;;;;;;;;;;;16.55;50.58;101308.81;5088917;28;1019;-43
2023/01/05 07:59:43;;;;;;;;;;;;;;;16.05;52.08;101310.78;5094650;28;1220;-47
2023/01/05 08:02:09;;;;;;;;;;;;;;;15.85;52.65;101300.38;5099969;28;899;-46
2023/01/05 08:04:35;;;;;;;;;;;;;;;15.68;52.86;101295.78;5099433;28;1279;-45
2023/01/05 08:07:01;;;;;;;;;;;;;;;15.78;52.78;101294.22;5093357;28;1060;-49
2023/01/05 08:12:10;;;;;;;;;;;;;;;16.38;51.32;101285.06;5096436;28;1019;-43
2023/01/05 08:14:36;;;;;;;;;;;;;;;16.01;52.24;101283.03;5096324;28;1052;-44
2023/01/05 08:17:01;;;;;;;;;;;;;;;16.55;50.94;101275.84;5082404;28;1976;-44
2023/01/05 08:19:26;;;;;;;;;;;;;;;17.23;49.04;101272.56;5089734;28;1097;-45
2023/01/05 08:21:52;;;;;;;;;;;;;;;16.36;51.36;101276.25;5086825;28;1198;-41
2023/01/05 08:24:17;;;;;;;;;;;;;;;16.08;52.08;101274.59;5083327;28;1229;-42
2023/01/05 08:26:43;;;;;;;;;;;;;;;15.84;52.65;101263.91;5087828;28;1209;-44
2023/01/05 08:29:08;;;;;;;;;;;;;;;16.70;50.90;101262.25;5091828;28;1276;-44
2023/01/05 08:31:36;;;;;;;;;;;;;;;17.06;49.70;101253.50;5086844;28;1321;-45
2023/01/05 08:34:02;;;;;;;;;;;;;;;16.29;51.83;101248.19;5088735;28;1274;-44
2023/01/05 08:36:30;;;;;;;;;;;;;;;16.00;52.21;101236.66;5088347;28;1984;-42
2023/01/05 08:38:55;;;;;;;;;;;;;;;15.80;52.89;101235.34;5086440;28;1138;-42
2023/01/05 08:41:24;;;;;;;;;;;;;;;16.05;52.35;101243.03;5083765;28;1269;-42
2023/01/05 08:43:51;;;;;;;;;;;;;;;17.56;48.64;101232.03;5087381;28;1178;-44
2023/01/05 08:46:17;;;;;;;;;;;;;;;16.51;51.12;101228.06;5086229;28;1284;-39
2023/01/05 08:48:43;;;;;;;;;;;;;;;16.07;52.01;101224.41;5081693;28;1143;-42
2023/01/05 08:51:08;;;;;;;;;;;;;;;15.88;52.74;101210.22;5084073;28;952;-45
2023/01/05 08:53:34;;;;;;;;;;;;;;;15.73;52.90;101210.81;5091652;28;1206;-44
2023/01/05 08:56:00;;;;;;;;;;;;;;;16.12;52.40;101204.41;5090818;28;1914;-42
2023/01/05 08:58:25;;;;;;;;;;;;;;;17.52;48.84;101195.19;5086408;28;1111;-43
2023/01/05 09:00:52;;;;;;;;;;;;;;;16.47;51.25;101189.34;5086392;28;1292;-43
2023/01/05 09:03:17;;;;;;;;;;;;;;;16.07;52.29;101196.13;5085449;28;1226;-43
2023/01/05 09:05:43;;;;;;;;;;;;;;;15.86;52.88;101187.69;5088749;28;1245;-49
2023/01/05 09:08:08;;;;;;;;;;;;;;;15.73;53.12;101177.94;5093362;28;1229;-43
2023/01/05 09:10:34;;;;;;;;;;;;;;;15.62;53.37;101178.91;5087066;28;1209;-41
2023/01/05 09:12:59;;;;;;;;;;;;;;;16.65;50.86;101171.63;5082692;28;1474;-41
2023/01/05 09:15:25;;;;;;;;;;;;;;;17.23;49.19;101171.69;5084880;28;1909;-46
2023/01/05 09:17:50;;;;;;;;;;;;;;;16.32;51.86;101162.59;5085674;28;1256;-41
2023/01/05 09:20:16;;;;;;;;;;;;;;;15.97;52.56;101166.69;5085987;28;1238;-43
2023/01/05 09:22:41;;;;;;;;;;;;;;;15.80;53.05;101158.56;5091036;28;1261;-42
2023/01/05 09:25:07;;;;;;;;;;;;;;;16.52;51.52;101150.09;5089235;28;1296;-45
2023/01/05 09:27:32;;;;;;;;;;;;;;;17.00;50.02;101137.25;5084504;28;1294;-43
2023/01/05 09:29:57;;;;;;;;;;;;;;;16.23;51.89;101137.56;5088171;28;1218;-46
2023/01/05 09:32:23;;;;;;;;;;;;;;;15.94;52.58;101125.25;5086853;28;1265;-40
2023/01/05 09:34:49;;;;;;;;;;;;;;;15.74;52.99;101127.50;5094967;28;1226;-44
2023/01/05 09:37:14;;;;;;;;;;;;;;;15.68;53.45;101122.22;5094356;28;1915;-43
2023/01/05 09:39:40;;;;;;;;;;;;;;;16.71;51.16;101107.41;5094527;28;1030;-46
2023/01/05 09:42:05;;;;;;;;;;;;;;;16.95;50.29;101101.50;5095026;28;1170;-43
2023/01/05 09:44:31;;;;;;;;;;;;;;;16.16;52.09;101092.22;5078191;28;1007;-45
2023/01/05 09:47:04;;;;;;;;;;;;;;;15.90;53.06;101083.78;5086841;28;1119;-45
2023/01/05 09:49:29;;;;;;;;;;;;;;;16.04;52.93;101079.50;5090264;28;1083;-41
2023/01/05 09:51:59;;;;;;;;;;;;;;;17.39;49.32;101079.13;5091947;28;886;-44
2023/01/05 09:54:25;;;;;;;;;;;;;;;16.42;51.80;101061.13;5081576;28;1022;-47
2023/01/05 09:56:50;;;;;;;;;;;;;;;16.06;52.51;101058.16;5094723;28;1906;-46
2023/01/05 09:59:17;;;;;;;;;;;;;;;15.83;53.22;101053.03;5084127;28;1318;-46
2023/01/05 10:01:43;;;;;;;;;;;;;;;15.76;53.10;101063.34;5083526;28;1082;-46
2023/01/05 10:04:15;;;;;;;;;;;;;;;16.79;50.92;101051.16;5094392;28;839;-44
2023/01/05 10:06:42;;;;;;;;;;;;;;;16.87;50.69;101049.78;5083458;28;1206;-45
2023/01/05 10:09:10;;;;;;;;;;;;;;;16.16;52.40;101032.69;5082037;28;1146;-43
2023/01/05 10:14:44;;;;;;;;;;;;;;;15.74;53.38;101020.56;5081747;28;1194;-44
2023/01/05 10:17:11;;;;;;;;;;;;;;;15.76;53.22;101014.00;5048838;28;1906;-44
2023/01/05 10:19:37;;;;;;;;;;;;;;;17.22;49.67;100998.81;5085601;28;1102;-41
2023/01/05 10:22:02;;;;;;;;;;;;;;;16.31;52.15;100990.78;5087207;28;1083;-42
2023/01/05 10:24:41;;;;;;;;;;;;;;;15.98;52.69;100973.59;5088068;28;1038;-42
2023/01/05 10:27:12;;;;;;;;;;;;;;;15.76;53.50;100978.34;5085860;28;1257;-42
2023/01/05 10:29:38;;;;;;;;;;;;;;;16.28;52.43;100968.56;5085617;28;1261;-43
2023/01/05 10:32:15;;;;;;;;;;;;;;;17.20;49.64;100965.31;5086658;28;1313;-42
2023/01/05 10:34:44;;;;;;;;;;;;;;;16.23;52.17;100969.38;5085004;28;1135;-44
2023/01/05 10:37:29;;;;;;;;;;;;;;;15.96;53.06;100963.97;5084319;28;1906;-44
2023/01/05 10:40:07;;;;;;;;;;;;;;;15.73;53.47;100953.09;5073234;28;1368;-42
2023/01/05 10:42:48;;;;;;;;;;;;;;;16.24;52.38;100949.03;5096465;28;1210;-47
2023/01/05 10:45:14;;;;;;;;;;;;;;;17.07;49.88;100939.19;5100554;28;1209;-42
2023/01/05 10:47:39;;;;;;;;;;;;;;;16.23;52.17;100931.78;5099951;28;1213;-45
2023/01/05 10:50:23;;;;;;;;;;;;;;;15.96;52.95;100942.03;5099106;28;1281;-41
2023/01/05 10:52:48;;;;;;;;;;;;;;;15.72;53.54;100935.03;5094900;28;1467;-41
2023/01/05 10:55:14;;;;;;;;;;;;;;;16.39;52.12;100942.81;5096886;28;1980;-47
2023/01/05 10:57:40;;;;;;;;;;;;;;;16.92;50.34;100942.72;5098813;28;1138;-43
2023/01/05 11:00:11;;;;;;;;;;;;;;;16.13;52.47;100936.38;5099268;28;991;-41
2023/01/05 11:02:38;;;;;;;;;;;;;;;15.86;53.05;100921.69;5089283;28;1282;-42
2023/01/05 11:05:16;;;;;;;;;;;;;;;16.31;52.25;100924.91;5082144;28;853;-40
2023/01/05 11:07:48;;;;;;;;;;;;;;;17.04;50.06;100913.09;5090984;28;1011;-47
2023/01/05 11:10:21;;;;;;;;;;;;;;;16.22;51.95;100910.09;5090117;28;1084;-41
2023/01/05 11:12:51;;;;;;;;;;;;;;;15.98;52.77;100904.22;5099066;28;1488;-41
2023/01/05 11:15:18;;;;;;;;;;;;;;;15.79;53.26;100895.56;5097809;28;1996;-46
2023/01/05 11:17:43;;;;;;;;;;;;;;;15.90;52.91;100886.34;5088914;28;2024;-46
2023/01/05 11:20:15;;;;;;;;;;;;;;;17.34;48.95;100870.19;5085859;28;1019;-42
2023/01/05 11:22:43;;;;;;;;;;;;;;;16.40;51.75;100879.41;5089359;28;1360;-42
2023/01/05 11:25:12;;;;;;;;;;;;;;;16.01;52.63;100882.56;5087201;28;1293;-46
2023/01/05 11:27:37;;;;;;;;;;;;;;;16.40;51.98;100873.09;5088731;28;1158;-46
2023/01/05 11:30:15;;;;;;;;;;;;;;;17.40;48.89;100860.88;5087110;28;1175;-43
2023/01/05 11:32:41;;;;;;;;;;;;;;;16.39;51.68;100852.25;5087677;28;1166;-43
2023/01/05 11:35:21;;;;;;;;;;;;;;;16.08;52.32;100850.22;5087435;28;1917;-44
2023/01/05 11:37:46;;;;;;;;;;;;;;;16.11;52.56;100851.59;5090549;28;1167;-43
2023/01/05 11:40:16;;;;;;;;;;;;;;;17.39;49.09;100845.47;5086827;28;1229;-46
2023/01/05 11:42:42;;;;;;;;;;;;;;;16.41;51.76;100845.41;5088266;28;1336;-40
2023/01/05 11:45:28;;;;;;;;;;;;;;;16.15;52.12;100832.69;5087712;28;1237;-43
2023/01/05 11:47:54;;;;;;;;;;;;;;;15.84;52.97;100835.31;5089326;28;1789;-39
2023/01/05 11:50:26;;;;;;;;;;;;;;;15.94;52.86;100829.88;5076194;28;1289;-45
2023/01/05 11:52:55;;;;;;;;;;;;;;;17.42;49.29;100820.16;5083022;28;1075;-43
2023/01/05 11:55:31;;;;;;;;;;;;;;;16.45;51.46;100817.41;5087283;28;1982;-44
2023/01/05 11:58:14;;;;;;;;;;;;;;;16.02;52.63;100818.38;5085061;28;1054;-45
2023/01/05 12:00:42;;;;;;;;;;;;;;;15.83;53.09;100811.72;5096727;28;1121;-43
2023/01/05 12:03:20;;;;;;;;;;;;;;;15.72;53.47;100819.03;5085950;28;1079;-48
2023/01/05 12:05:53;;;;;;;;;;;;;;;16.31;52.19;100809.69;5093840;28;1272;-42
2023/01/05 12:08:20;;;;;;;;;;;;;;;17.16;49.67;100815.81;5091087;28;1257;-38
2023/01/05 12:11:21;;;;;;;;;;;;;;;16.29;52.14;100809.13;5087440;28;1083;-42
2023/01/05 12:13:55;;;;;;;;;;;;;;;15.91;53.08;100814.78;4996534;28;1414;-45
2023/01/05 12:16:24;;;;;;;;;;;;;;;15.74;53.22;100820.44;5068951;28;1910;-44
2023/01/05 12:19:08;;;;;;;;;;;;;;;17.21;49.72;100804.84;5083595;28;2137;-41
2023/01/05 12:21:38;;;;;;;;;;;;;;;16.55;51.41;100812.75;5086395;28;1308;-41
2023/01/05 12:24:09;;;;;;;;;;;;;;;16.12;52.37;100812.09;5082805;28;1162;-42
2023/01/05 12:26:54;;;;;;;;;;;;;;;15.90;53.21;100801.31;5083035;28;1053;-43
2023/01/05 12:29:38;;;;;;;;;;;;;;;15.73;53.48;100796.84;5090750;28;1143;-42
2023/01/05 12:32:03;;;;;;;;;;;;;;;17.12;50.27;100800.97;5089627;28;1011;-43
2023/01/05 12:34:47;;;;;;;;;;;;;;;16.60;51.27;100800.94;5086331;28;1194;-43
2023/01/05 12:37:18;;;;;;;;;;;;;;;16.08;52.86;100800.84;5087137;28;1941;-41
2023/01/05 12:39:53;;;;;;;;;;;;;;;15.82;53.11;100791.72;5091297;28;1210;-45
2023/01/05 12:42:19;;;;;;;;;;;;;;;15.67;53.63;100795.19;5085573;28;1250;-44
2023/01/05 12:44:44;;;;;;;;;;;;;;;16.87;50.69;100791.63;5086386;28;1273;-43
2023/01/05 12:47:29;;;;;;;;;;;;;;;16.72;50.83;100787.78;5091756;28;1159;-44
2023/01/05 12:49:56;;;;;;;;;;;;;;;16.07;52.87;100787.41;5088203;28;1269;-42
2023/01/05 12:52:22;;;;;;;;;;;;;;;15.88;53.11;100798.03;5087112;28;1288;-43
2023/01/05 12:54:59;;;;;;;;;;;;;;;15.73;53.48;100791.34;5086790;28;1381;-47
2023/01/05 12:57:29;;;;;;;;;;;;;;;17.28;49.62;100786.13;5080411;28;1979;-40
2023/01/05 13:00:10;;;;;;;;;;;;;;;16.60;51.48;100789.97;5078809;28;1103;-44
2023/01/05 13:02:48;;;;;;;;;;;;;;;16.05;52.83;100787.66;5087983;28;1167;-42
2023/01/05 13:05:16;;;;;;;;;;;;;;;15.88;53.04;100793.38;5080724;28;925;-41
2023/01/05 13:07:50;;;;;;;;;;;;;;;15.76;53.66;100795.47;5087904;28;1277;-39
2023/01/05 13:10:20;;;;;;;;;;;;;;;17.31;49.51;100788.31;5086224;28;1306;-46
2023/01/05 13:12:46;;;;;;;;;;;;;;;16.40;52.05;100788.84;5086312;28;1226;-44
2023/01/05 13:15:22;;;;;;;;;;;;;;;15.99;53.04;100794.25;5085688;28;2071;-41
2023/01/05 13:17:48;;;;;;;;;;;;;;;15.80;53.58;100795.81;5082470;28;1262;-44
2023/01/05 13:20:25;;;;;;;;;;;;;;;15.65;53.83;100783.63;5085036;28;1278;-45
2023/01/05 13:22:58;;;;;;;;;;;;;;;16.62;51.46;100774.06;5086160;28;1206;-47
2023/01/05 13:25:24;;;;;;;;;;;;;;;17.52;49.02;100780.84;5085898;28;1194;-42
2023/01/05 13:27:49;;;;;;;;;;;;;;;16.49;51.80;100766.34;5076725;28;1126;-40